Observation data for Memphis on 02/16/2018      Previous  Date  Next       Current Mesonet Observations  Soil Data  Daily Summary Page  Observations in Plain Language
KMES 160600Z 29014G20KT 20/02 A2999 RMK A01 T02010022  RH  031%=      5-min Rain = 0
KMES 160605Z 30014G21KT 20/02 A2999 RMK A01 T02000020  RH  031%=      5-min Rain = 0
KMES 160610Z 30014G20KT 20/02 A2999 RMK A01 T01990018  RH  030%=      5-min Rain = 0
KMES 160615Z 30014G22KT 20/02 A2999 RMK A01 T01970016  RH  030%=      5-min Rain = 0
KMES 160620Z 31017G24KT 20/02 A30 RMK A01 T01960015  RH  030%=      5-min Rain = 0
KMES 160625Z 33024G38KT 19/02 A3001 RMK A01 T01920015  RH  031%=      5-min Rain = 0
KMES 160630Z 35029G38KT 16/00 A3003 RMK A01 T015800-0  RH  034%=      5-min Rain = 0
KMES 160635Z 35026G34KT 14/M01 A3004 RMK A01 T01391005  RH  038%=      5-min Rain = 0
KMES 160640Z 36023G29KT 13/M01 A3004 RMK A01 T01321007  RH  039%=      5-min Rain = 0
KMES 160645Z 36024G33KT 13/M01 A3005 RMK A01 T01291010  RH  039%=      5-min Rain = 0
KMES 160650Z 36025G32KT 13/M01 A3005 RMK A01 T01261011  RH  039%=      5-min Rain = 0
KMES 160655Z 00022G31KT 13/M01 A3006 RMK A01 T01251012  RH  039%=      5-min Rain = 0
KMES 160700Z 00024KT 12/M01 A3006 RMK A01 T01231014  RH  039%=      5-min Rain = 0
KMES 160705Z 00024G31KT 12/M02 A3007 RMK A01 T01211019  RH  038%=      5-min Rain = 0
KMES 160710Z 00022G28KT 12/M02 A3007 RMK A01 T01191022  RH  038%=      5-min Rain = 0
KMES 160715Z 36026G33KT 12/M03 A3007 RMK A01 T01171027  RH  037%=      5-min Rain = 0
KMES 160720Z 00023G31KT 11/M03 A3008 RMK A01 T01141032  RH  036%=      5-min Rain = 0
KMES 160725Z 35022G29KT 11/M03 A3009 RMK A01 T01131032  RH  036%=      5-min Rain = 0
KMES 160730Z 36021KT 11/M03 A301 RMK A01 T01121032  RH  037%=      5-min Rain = 0
KMES 160735Z 36026G33KT 11/M03 A301 RMK A01 T01101033  RH  037%=      5-min Rain = 0
KMES 160740Z 36024G32KT 11/M03 A3011 RMK A01 T01081034  RH  037%=      5-min Rain = 0
KMES 160745Z 00022G28KT 11/M04 A3011 RMK A01 T01061037  RH  037%=      5-min Rain = 0
KMES 160750Z 00022G30KT 11/M04 A3012 RMK A01 T01051037  RH  037%=      5-min Rain = 0
KMES 160755Z 00024G34KT 11/M04 A3013 RMK A01 T01051040  RH  036%=      5-min Rain = 0
KMES 160800Z 01025G33KT 10/M04 A3013 RMK A01 T01041043  RH  035%=      5-min Rain = 0
KMES 160805Z 00021G28KT 10/M04 A3013 RMK A01 T01041043  RH  036%=      5-min Rain = 0
KMES 160810Z 36021G27KT 10/M04 A3014 RMK A01 T01041038  RH  037%=      5-min Rain = 0
KMES 160815Z 36021G31KT 10/M04 A3014 RMK A01 T01031037  RH  038%=      5-min Rain = 0
KMES 160820Z 01024G33KT 10/M04 A3015 RMK A01 T01021042  RH  036%=      5-min Rain = 0
KMES 160825Z 01023G30KT 10/M05 A3016 RMK A01 T01011045  RH  036%=      5-min Rain = 0
KMES 160830Z 01022G30KT 10/M05 A3017 RMK A01 T01001046  RH  036%=      5-min Rain = 0
KMES 160835Z 01021G28KT 10/M05 A3017 RMK A01 T00991048  RH  036%=      5-min Rain = 0
KMES 160840Z 01021G27KT 10/M05 A3017 RMK A01 T00981047  RH  036%=      5-min Rain = 0
KMES 160845Z 00025G31KT 10/M05 A3017 RMK A01 T00961045  RH  037%=      5-min Rain = 0
KMES 160850Z 00023G31KT 09/M05 A3018 RMK A01 T00941045  RH  037%=      5-min Rain = 0
KMES 160855Z 36021G26KT 09/M05 A3019 RMK A01 T00921045  RH  038%=      5-min Rain = 0
KMES 160900Z 00020G25KT 09/M05 A302 RMK A01 T00901045  RH  039%=      5-min Rain = 0
KMES 160905Z 01018G24KT 09/M05 A302 RMK A01 T00881045  RH  039%=      5-min Rain = 0
KMES 160910Z 00021G30KT 09/M04 A302 RMK A01 T00861044  RH  040%=      5-min Rain = 0
KMES 160915Z 01024G32KT 09/M04 A302 RMK A01 T00851044  RH  040%=      5-min Rain = 0
KMES 160920Z 00023G31KT 09/M04 A3021 RMK A01 T00851044  RH  040%=      5-min Rain = 0
KMES 160925Z 01022G29KT 08/M04 A3021 RMK A01 T00841044  RH  040%=      5-min Rain = 0
KMES 160930Z 01020G27KT 08/M04 A3022 RMK A01 T00831044  RH  041%=      5-min Rain = 0
KMES 160935Z 00019G24KT 08/M04 A3022 RMK A01 T00821042  RH  042%=      5-min Rain = 0
KMES 160940Z 36023G31KT 08/M04 A3022 RMK A01 T00801037  RH  044%=      5-min Rain = 0
KMES 160945Z 36023G29KT 08/M04 A3022 RMK A01 T00771036  RH  045%=      5-min Rain = 0
KMES 160950Z 36020G27KT 07/M04 A3023 RMK A01 T00741035  RH  046%=      5-min Rain = 0
KMES 160955Z 00024G31KT 07/M04 A3023 RMK A01 T00721036  RH  047%=      5-min Rain = 0
KMES 161000Z 00021G28KT 07/M04 A3023 RMK A01 T00711035  RH  047%=      5-min Rain = 0
KMES 161005Z 00017KT 07/M04 A3023 RMK A01 T00701035  RH  048%=      5-min Rain = 0
KMES 161010Z 36019G25KT 07/M03 A3023 RMK A01 T00691034  RH  048%=      5-min Rain = 0
KMES 161015Z 00023G30KT 07/M03 A3024 RMK A01 T00691033  RH  049%=      5-min Rain = 0
KMES 161020Z 36024G29KT 07/M03 A3024 RMK A01 T00681032  RH  049%=      5-min Rain = 0
KMES 161025Z 00020G25KT 07/M03 A3025 RMK A01 T00671032  RH  050%=      5-min Rain = 0
KMES 161030Z 35018G25KT 07/M03 A3025 RMK A01 T00671030  RH  050%=      5-min Rain = 0
KMES 161035Z 36021G28KT 07/M03 A3025 RMK A01 T00651028  RH  052%=      5-min Rain = 0
KMES 161040Z 00023G28KT 06/M03 A3025 RMK A01 T00631027  RH  053%=      5-min Rain = 0
KMES 161045Z 00023G29KT 06/M03 A3026 RMK A01 T00621027  RH  054%=      5-min Rain = 0
KMES 161050Z 00022G31KT 06/M03 A3027 RMK A01 T00601026  RH  054%=      5-min Rain = 0
KMES 161055Z 00022G30KT 06/M03 A3027 RMK A01 T00591026  RH  055%=      5-min Rain = 0
KMES 161100Z 36020G25KT 06/M03 A3028 RMK A01 T00591025  RH  055%=      5-min Rain = 0
KMES 161105Z 00020G27KT 06/M03 A3027 RMK A01 T00581025  RH  056%=      5-min Rain = 0
KMES 161110Z 36022G28KT 06/M02 A3028 RMK A01 T00561023  RH  057%=      5-min Rain = 0
KMES 161115Z 36020G26KT 06/M02 A3028 RMK A01 T00561023  RH  057%=      5-min Rain = 0
KMES 161120Z 00020G26KT 06/M02 A3028 RMK A01 T00551024  RH  058%=      5-min Rain = 0
KMES 161125Z 00018G24KT 05/M02 A3029 RMK A01 T00541024  RH  058%=      5-min Rain = 0
KMES 161130Z 00018G24KT 05/M02 A3029 RMK A01 T00541023  RH  058%=      5-min Rain = 0
KMES 161135Z 36018G24KT 05/M02 A3029 RMK A01 T00531022  RH  059%=      5-min Rain = 0
KMES 161140Z 00019G25KT 05/M02 A3029 RMK A01 T00511021  RH  060%=      5-min Rain = 0
KMES 161145Z 36020G27KT 05/M02 A303 RMK A01 T00491020  RH  062%=      5-min Rain = 0
KMES 161150Z 36019G24KT 05/M02 A303 RMK A01 T00481020  RH  062%=      5-min Rain = 0
KMES 161155Z 36019G25KT 05/M02 A303 RMK A01 T00461020  RH  063%=      5-min Rain = 0
KMES 161200Z 36019G26KT 05/M02 A303 RMK A01 T00451020  RH  063%=      5-min Rain = 0
KMES 161205Z 36021G28KT 05/M02 A303 RMK A01 T00451020  RH  063%=      5-min Rain = 0
KMES 161210Z 36019G25KT 05/M02 A3031 RMK A01 T00451020  RH  064%=      5-min Rain = 0
KMES 161215Z 00018G24KT 04/M02 A3031 RMK A01 T00441020  RH  064%=      5-min Rain = 0
KMES 161220Z 36019G25KT 04/M02 A3031 RMK A01 T00441021  RH  064%=      5-min Rain = 0
KMES 161225Z 01019G26KT 04/M02 A3031 RMK A01 T00431021  RH  064%=      5-min Rain = 0
KMES 161230Z 01020G28KT 04/M02 A3031 RMK A01 T00421021  RH  064%=      5-min Rain = 0
KMES 161235Z 00022G28KT 04/M02 A3032 RMK A01 T00421021  RH  064%=      5-min Rain = 0
KMES 161240Z 36020G26KT 04/M02 A3033 RMK A01 T00411021  RH  064%=      5-min Rain = 0
KMES 161245Z 00017G24KT 04/M02 A3033 RMK A01 T00401022  RH  065%=      5-min Rain = 0
KMES 161250Z 00016G24KT 04/M02 A3034 RMK A01 T00401022  RH  065%=      5-min Rain = 0
KMES 161255Z 00017G22KT 04/M02 A3033 RMK A01 T00401022  RH  065%=      5-min Rain = 0
KMES 161300Z 01017G22KT 04/M02 A3034 RMK A01 T00391024  RH  064%=      5-min Rain = 0
KMES 161305Z 01014G20KT 04/M03 A3035 RMK A01 T00391025  RH  063%=      5-min Rain = 0
KMES 161310Z 01011KT 04/M03 A3035 RMK A01 T00391025  RH  064%=      5-min Rain = 0
KMES 161315Z 01015G22KT 04/M03 A3035 RMK A01 T00391025  RH  064%=      5-min Rain = 0
KMES 161320Z 01018G27KT 04/M03 A3035 RMK A01 T00391025  RH  064%=      5-min Rain = 0
KMES 161325Z 01019G25KT 04/M03 A3036 RMK A01 T00381025  RH  064%=      5-min Rain = 0
KMES 161330Z 01016G21KT 04/M03 A3036 RMK A01 T00381025  RH  064%=      5-min Rain = 0
KMES 161335Z 01014G23KT 04/M03 A3036 RMK A01 T00381025  RH  064%=      5-min Rain = 0
KMES 161340Z 01017G22KT 04/M02 A3037 RMK A01 T00381024  RH  064%=      5-min Rain = 0
KMES 161345Z 00018G23KT 04/M02 A3037 RMK A01 T00381024  RH  065%=      5-min Rain = 0
KMES 161350Z 01015G20KT 04/M02 A3037 RMK A01 T00381024  RH  065%=      5-min Rain = 0
KMES 161355Z 01013KT 04/M02 A3037 RMK A01 T00381023  RH  065%=      5-min Rain = 0
KMES 161400Z 01013G18KT 04/M02 A3037 RMK A01 T00381023  RH  065%=      5-min Rain = 0
KMES 161405Z 01015KT 04/M02 A3038 RMK A01 T00371023  RH  065%=      5-min Rain = 0
KMES 161410Z 36014G20KT 04/M02 A3038 RMK A01 T00371023  RH  066%=      5-min Rain = 0
KMES 161415Z 00015KT 04/M02 A3038 RMK A01 T00371022  RH  066%=      5-min Rain = 0
KMES 161420Z 01017G24KT 04/M02 A3039 RMK A01 T00361022  RH  066%=      5-min Rain = 0
KMES 161425Z 00016G22KT 04/M02 A3039 RMK A01 T00371023  RH  066%=      5-min Rain = 0
KMES 161430Z 01016KT 04/M02 A3039 RMK A01 T00361023  RH  066%=      5-min Rain = 0
KMES 161435Z 01015KT 04/M02 A3039 RMK A01 T00361022  RH  066%=      5-min Rain = 0
KMES 161440Z 02014G19KT 04/M02 A3039 RMK A01 T00361022  RH  067%=      5-min Rain = 0
KMES 161445Z 01015G21KT 04/M02 A304 RMK A01 T00351022  RH  067%=      5-min Rain = 0
KMES 161450Z 01017G23KT 03/M03 A304 RMK A01 T00321027  RH  066%=      5-min Rain = 0
KMES 161455Z 01015G20KT 03/M03 A304 RMK A01 T00301028  RH  066%=      5-min Rain = 0
KMES 161500Z 02015KT 03/M03 A304 RMK A01 T00301030  RH  065%=      5-min Rain = 0
KMES 161505Z 01013KT 03/M03 A304 RMK A01 T00301031  RH  065%=      5-min Rain = 0
KMES 161510Z 01014G20KT 03/M03 A304 RMK A01 T00311030  RH  065%=      5-min Rain = 0
KMES 161515Z 01013KT 03/M03 A3041 RMK A01 T00311028  RH  066%=      5-min Rain = 0
KMES 161520Z 00015G24KT 03/M03 A3041 RMK A01 T00311027  RH  066%=      5-min Rain = 0
KMES 161525Z 00015KT 03/M03 A3041 RMK A01 T00311031  RH  065%=      5-min Rain = 0
KMES 161530Z 01015KT 03/M03 A3041 RMK A01 T00301032  RH  064%=      5-min Rain = 0
KMES 161535Z 01016G23KT 03/M03 A3041 RMK A01 T00301034  RH  063%=      5-min Rain = 0
KMES 161540Z 01017G22KT 03/M04 A3041 RMK A01 T00301036  RH  062%=      5-min Rain = 0
KMES 161545Z 01018G23KT 03/M04 A3041 RMK A01 T00321037  RH  061%=      5-min Rain = 0
KMES 161550Z 02015G21KT 04/M04 A3041 RMK A01 T00351035  RH  061%=      5-min Rain = 0
KMES 161555Z 01016G21KT 04/M04 A3041 RMK A01 T00391035  RH  059%=      5-min Rain = 0
KMES 161600Z 01018KT 04/M04 A3041 RMK A01 T00391036  RH  059%=      5-min Rain = 0
KMES 161605Z 01016KT 04/M04 A3041 RMK A01 T00391035  RH  059%=      5-min Rain = 0
KMES 161610Z 00014G19KT 04/M03 A3042 RMK A01 T00411032  RH  059%=      5-min Rain = 0
KMES 161615Z 35016KT 05/M03 A3042 RMK A01 T00451031  RH  058%=      5-min Rain = 0
KMES 161620Z 34017KT 04/M03 A3042 RMK A01 T00411034  RH  059%=      5-min Rain = 0
KMES 161625Z 36017KT 04/M04 A3042 RMK A01 T00401036  RH  059%=      5-min Rain = 0
KMES 161630Z 00017KT 04/M04 A3042 RMK A01 T00381038  RH  058%=      5-min Rain = 0
KMES 161635Z 00017KT 04/M04 A3042 RMK A01 T00411039  RH  056%=      5-min Rain = 0
KMES 161640Z 01016G22KT 04/M04 A3042 RMK A01 T00411040  RH  056%=      5-min Rain = 0
KMES 161645Z 01015G22KT 04/M04 A3042 RMK A01 T00421042  RH  055%=      5-min Rain = 0
KMES 161650Z 01017G24KT 04/M04 A3042 RMK A01 T00401043  RH  055%=      5-min Rain = 0
KMES 161655Z 01016G22KT 04/M05 A3042 RMK A01 T00391045  RH  055%=      5-min Rain = 0
KMES 161700Z 01015G20KT 04/M04 A3042 RMK A01 T00401044  RH  055%=      5-min Rain = 0
KMES 161705Z 01014KT 04/M05 A3042 RMK A01 T00411045  RH  054%=      5-min Rain = 0
KMES 161710Z 02015G20KT 04/M05 A3042 RMK A01 T00421047  RH  053%=      5-min Rain = 0
KMES 161715Z 02014KT 04/M05 A3042 RMK A01 T00421048  RH  053%=      5-min Rain = 0
KMES 161720Z 01014KT 04/M05 A3043 RMK A01 T00421048  RH  053%=      5-min Rain = 0
KMES 161725Z 01014KT 04/M05 A3042 RMK A01 T00401050  RH  052%=      5-min Rain = 0
KMES 161730Z 01013KT 04/M05 A3041 RMK A01 T00411053  RH  051%=      5-min Rain = 0
KMES 161735Z 01013KT 04/M05 A3041 RMK A01 T00441052  RH  050%=      5-min Rain = 0
KMES 161740Z 01013KT 05/M05 A3041 RMK A01 T00471051  RH  050%=      5-min Rain = 0
KMES 161745Z 00014G20KT 05/M05 A3042 RMK A01 T00471050  RH  050%=      5-min Rain = 0
KMES 161750Z 02014KT 05/M05 A3041 RMK A01 T00501049  RH  049%=      5-min Rain = 0
KMES 161755Z 02013G18KT 05/M05 A3041 RMK A01 T00541049  RH  048%=      5-min Rain = 0
KMES 161800Z 01013G18KT 05/M05 A3041 RMK A01 T00531051  RH  048%=      5-min Rain = 0
KMES 161805Z 01012KT 05/M05 A3041 RMK A01 T00521049  RH  049%=      5-min Rain = 0
KMES 161810Z 01012G17KT 05/M05 A3041 RMK A01 T00541048  RH  048%=      5-min Rain = 0
KMES 161815Z 01012G17KT 05/M05 A3041 RMK A01 T00521051  RH  048%=      5-min Rain = 0
KMES 161820Z 00012KT 05/M05 A304 RMK A01 T00511053  RH  047%=      5-min Rain = 0
KMES 161825Z 02012KT 05/M06 A304 RMK A01 T00531056  RH  046%=      5-min Rain = 0
KMES 161830Z 01010KT 05/M06 A3039 RMK A01 T00531056  RH  046%=      5-min Rain = 0
KMES 161835Z 01009KT 06/M06 A3039 RMK A01 T00581057  RH  044%=      5-min Rain = 0
KMES 161840Z 03010KT 06/M06 A3039 RMK A01 T00591060  RH  043%=      5-min Rain = 0
KMES 161845Z 03010KT 06/M06 A3038 RMK A01 T00591059  RH  043%=      5-min Rain = 0
KMES 161850Z 03010KT 06/M06 A3038 RMK A01 T00601061  RH  042%=      5-min Rain = 0
KMES 161855Z 01010G16KT 06/M06 A3037 RMK A01 T00601061  RH  042%=      5-min Rain = 0
KMES 161900Z 02009KT 06/M06 A3038 RMK A01 T00581064  RH  042%=      5-min Rain = 0
KMES 161905Z 02010KT 06/M06 A3037 RMK A01 T00591064  RH  041%=      5-min Rain = 0
KMES 161910Z 36008KT 06/M07 A3037 RMK A01 T00571065  RH  042%=      5-min Rain = 0
KMES 161915Z 01008KT 06/M07 A3037 RMK A01 T00571065  RH  041%=      5-min Rain = 0
KMES 161920Z 01007G12KT 06/M07 A3036 RMK A01 T00591067  RH  041%=      5-min Rain = 0
KMES 161925Z 01007KT 06/M07 A3036 RMK A01 T00591066  RH  040%=      5-min Rain = 0
KMES 161930Z 03008KT 06/M07 A3035 RMK A01 T00601066  RH  040%=      5-min Rain = 0
KMES 161935Z 03007KT 06/M07 A3035 RMK A01 T00611067  RH  040%=      5-min Rain = 0
KMES 161940Z 03006KT 06/M07 A3034 RMK A01 T00601067  RH  040%=      5-min Rain = 0
KMES 161945Z 05007KT 06/M07 A3034 RMK A01 T00591068  RH  040%=      5-min Rain = 0
KMES 161950Z 03009KT 06/M07 A3033 RMK A01 T00601067  RH  040%=      5-min Rain = 0
KMES 161955Z 01006KT 06/M07 A3033 RMK A01 T00591067  RH  040%=      5-min Rain = 0
KMES 162000Z 01006KT 06/M07 A3033 RMK A01 T00621067  RH  040%=      5-min Rain = 0
KMES 162005Z 03008KT 06/M07 A3032 RMK A01 T00631067  RH  039%=      5-min Rain = 0
KMES 162010Z 04007KT 07/M07 A3032 RMK A01 T00651067  RH  039%=      5-min Rain = 0
KMES 162015Z 02005KT 06/M07 A3031 RMK A01 T00641067  RH  039%=      5-min Rain = 0
KMES 162020Z 03007G12KT 06/M07 A3031 RMK A01 T00641069  RH  038%=      5-min Rain = 0
KMES 162025Z 03006KT 06/M07 A3031 RMK A01 T00611069  RH  039%=      5-min Rain = 0
KMES 162030Z 02007KT 06/M07 A303 RMK A01 T00621069  RH  039%=      5-min Rain = 0
KMES 162035Z 03006KT 06/M07 A303 RMK A01 T00621069  RH  039%=      5-min Rain = 0
KMES 162040Z 04005KT 06/M07 A303 RMK A01 T00621069  RH  039%=      5-min Rain = 0
KMES 162045Z 02006KT 06/M07 A303 RMK A01 T00641068  RH  039%=      5-min Rain = 0
KMES 162050Z 35004G9KT 06/M07 A303 RMK A01 T00641066  RH  039%=      5-min Rain = 0
KMES 162055Z 35006KT 06/M06 A303 RMK A01 T00641064  RH  040%=      5-min Rain = 0
KMES 162100Z 02003KT 06/M06 A303 RMK A01 T00641061  RH  041%=      5-min Rain = 0
KMES 162105Z 00005KT 07/M06 A303 RMK A01 T00651061  RH  040%=      5-min Rain = 0
KMES 162110Z 00002KT 06/M07 A303 RMK A01 T00641065  RH  040%=      5-min Rain = 0
KMES 162115Z 36004KT 06/M07 A303 RMK A01 T00641065  RH  040%=      5-min Rain = 0
KMES 162120Z 03004KT 07/M07 A3029 RMK A01 T00651065  RH  039%=      5-min Rain = 0
KMES 162125Z 03004KT 06/M07 A3029 RMK A01 T00641066  RH  039%=      5-min Rain = 0
KMES 162130Z 01004KT 06/M06 A3029 RMK A01 T00631064  RH  040%=      5-min Rain = 0
KMES 162135Z 03004G9KT 06/M06 A3029 RMK A01 T00641063  RH  040%=      5-min Rain = 0
KMES 162140Z 01004KT 07/M07 A3028 RMK A01 T00651065  RH  039%=      5-min Rain = 0
KMES 162145Z 03003KT 07/M07 A3028 RMK A01 T00651066  RH  039%=      5-min Rain = 0
KMES 162150Z 02003KT 06/M07 A3027 RMK A01 T00641066  RH  039%=      5-min Rain = 0
KMES 162155Z 06004KT 07/M07 A3026 RMK A01 T00651066  RH  039%=      5-min Rain = 0
KMES 162200Z 04005KT 07/M07 A3026 RMK A01 T00661066  RH  039%=      5-min Rain = 0
KMES 162205Z 04004KT 07/M07 A3026 RMK A01 T00671066  RH  039%=      5-min Rain = 0
KMES 162210Z 05005KT 07/M07 A3026 RMK A01 T00671067  RH  038%=      5-min Rain = 0
KMES 162215Z 06005KT 07/M07 A3025 RMK A01 T00671068  RH  038%=      5-min Rain = 0
KMES 162220Z 06004KT 07/M07 A3025 RMK A01 T00651069  RH  038%=      5-min Rain = 0
KMES 162225Z 06001KT 07/M07 A3026 RMK A01 T00651068  RH  039%=      5-min Rain = 0
KMES 162230Z 05003KT 07/M07 A3026 RMK A01 T00661069  RH  038%=      5-min Rain = 0
KMES 162235Z 04004KT 07/M07 A3025 RMK A01 T00661070  RH  038%=      5-min Rain = 0
KMES 162240Z 07004KT 07/M07 A3025 RMK A01 T00651070  RH  038%=      5-min Rain = 0
KMES 162245Z 09004KT 06/M07 A3025 RMK A01 T00641071  RH  038%=      5-min Rain = 0
KMES 162250Z 08005KT 06/M07 A3024 RMK A01 T00641071  RH  038%=      5-min Rain = 0
KMES 162255Z 07005KT 06/M07 A3025 RMK A01 T00631072  RH  038%=      5-min Rain = 0
KMES 162300Z 08005KT 06/M07 A3025 RMK A01 T00631073  RH  038%=      5-min Rain = 0
KMES 162305Z 09004KT 06/M07 A3024 RMK A01 T00621073  RH  038%=      5-min Rain = 0
KMES 162310Z 07004KT 06/M07 A3024 RMK A01 T00621073  RH  038%=      5-min Rain = 0
KMES 162315Z 07004KT 06/M07 A3024 RMK A01 T00621074  RH  037%=      5-min Rain = 0
KMES 162320Z 08005KT 06/M08 A3023 RMK A01 T00621075  RH  037%=      5-min Rain = 0
KMES 162325Z 08005KT 06/M08 A3022 RMK A01 T00611075  RH  037%=      5-min Rain = 0
KMES 162330Z 08006KT 06/M08 A3022 RMK A01 T00601076  RH  037%=      5-min Rain = 0
KMES 162335Z 08005KT 06/M08 A3022 RMK A01 T00601076  RH  038%=      5-min Rain = 0
KMES 162340Z 07005KT 06/M08 A3022 RMK A01 T00601076  RH  037%=      5-min Rain = 0
KMES 162345Z 07005KT 06/M08 A3022 RMK A01 T00591077  RH  037%=      5-min Rain = 0
KMES 162350Z 09005KT 06/M08 A3022 RMK A01 T00591077  RH  038%=      5-min Rain = 0
KMES 162355Z 08006KT 06/M08 A3022 RMK A01 T00581077  RH  038%=      5-min Rain = 0
KMES 170000Z 08005KT 06/M08 A3021 RMK A01 T00571077  RH  038%=      5-min Rain = 0
KMES 170005Z 08004KT 06/M08 A3021 RMK A01 T00571076  RH  038%=      5-min Rain = 0
KMES 170010Z 08004KT 06/M08 A3021 RMK A01 T00571077  RH  038%=      5-min Rain = 0
KMES 170015Z 07005KT 06/M08 A3021 RMK A01 T00561077  RH  038%=      5-min Rain = 0
KMES 170020Z 08003KT 06/M08 A3021 RMK A01 T00551077  RH  038%=      5-min Rain = 0
KMES 170025Z 08005KT 06/M08 A3021 RMK A01 T00551077  RH  039%=      5-min Rain = 0
KMES 170030Z 08004KT 05/M08 A3021 RMK A01 T00541077  RH  039%=      5-min Rain = 0
KMES 170035Z 08004KT 05/M08 A302 RMK A01 T00541077  RH  039%=      5-min Rain = 0
KMES 170040Z 08004KT 05/M08 A302 RMK A01 T00531077  RH  039%=      5-min Rain = 0
KMES 170045Z 08005KT 05/M08 A302 RMK A01 T00521076  RH  039%=      5-min Rain = 0
KMES 170050Z 09003KT 05/M08 A3021 RMK A01 T00521076  RH  040%=      5-min Rain = 0
KMES 170055Z 10003KT 05/M08 A3021 RMK A01 T00521076  RH  040%=      5-min Rain = 0
KMES 170100Z 10004KT 05/M08 A3021 RMK A01 T00521076  RH  040%=      5-min Rain = 0
KMES 170105Z 09002KT 05/M08 A3021 RMK A01 T00511076  RH  040%=      5-min Rain = 0
KMES 170110Z 10003KT 05/M07 A3021 RMK A01 T00511072  RH  041%=      5-min Rain = 0
KMES 170115Z 09004KT 05/M06 A3021 RMK A01 T00501062  RH  045%=      5-min Rain = 0
KMES 170120Z 09004KT 05/M05 A302 RMK A01 T00471053  RH  049%=      5-min Rain = 0
KMES 170125Z 10003KT 05/M05 A302 RMK A01 T00451047  RH  052%=      5-min Rain = 0
KMES 170130Z 10003KT 04/M04 A302 RMK A01 T00441042  RH  054%=      5-min Rain = 0
KMES 170135Z 10003KT 04/M04 A302 RMK A01 T00441038  RH  056%=      5-min Rain = 0
KMES 170140Z 10003KT 04/M03 A302 RMK A01 T00431033  RH  058%=      5-min Rain = 0
KMES 170145Z 10003KT 04/M03 A302 RMK A01 T00421028  RH  061%=      5-min Rain = 0
KMES 170150Z 10003KT 04/M03 A302 RMK A01 T00411028  RH  062%=      5-min Rain = 0
KMES 170155Z 11003KT 04/M02 A302 RMK A01 T00401024  RH  064%=      5-min Rain = 0
KMES 170200Z 11002KT 04/M02 A302 RMK A01 T00401021  RH  066%=      5-min Rain = 0
KMES 170205Z 11002KT 04/M02 A302 RMK A01 T00391019  RH  066%=      5-min Rain = 0
KMES 170210Z 11002KT 04/M02 A302 RMK A01 T00391016  RH  068%=      5-min Rain = 0
KMES 170215Z 09003KT 04/M01 A3019 RMK A01 T00381014  RH  070%=      5-min Rain = 0
KMES 170220Z 09002KT 04/M01 A3019 RMK A01 T00351013  RH  072%=      5-min Rain = 0
KMES 170225Z 12002KT 03/M01 A3019 RMK A01 T00341010  RH  073%=      5-min Rain = 0.01
KMES 170230Z 12004KT 03/M01 A3019 RMK A01 T00341012  RH  073%=      5-min Rain = 0
KMES 170235Z 11004KT 03/M01 A3018 RMK A01 T00331014  RH  072%=      5-min Rain = 0
KMES 170240Z 13004KT 03/M01 A3019 RMK A01 T00321007  RH  076%=      5-min Rain = 0
KMES 170245Z 13003KT 03/M00 A3018 RMK A01 T00321002  RH  079%=      5-min Rain = 0
KMES 170250Z 13004KT 03/M01 A3018 RMK A01 T00311005  RH  078%=      5-min Rain = 0.01
KMES 170255Z 15003KT 03/M01 A3018 RMK A01 T00301007  RH  078%=      5-min Rain = 0
KMES 170300Z 16003KT 03/M01 A3018 RMK A01 T00281007  RH  078%=      5-min Rain = 0
KMES 170305Z 14003KT 03/M01 A3017 RMK A01 T00271007  RH  079%=      5-min Rain = 0
KMES 170310Z 13003KT 03/M00 A3016 RMK A01 T00271004  RH  081%=      5-min Rain = 0.01
KMES 170315Z 15003KT 03/M00 A3017 RMK A01 T00271004  RH  081%=      5-min Rain = 0
KMES 170320Z 17002KT 03/M01 A3017 RMK A01 T00261005  RH  081%=      5-min Rain = 0.01
KMES 170325Z 17002KT 03/M00 A3017 RMK A01 T00251004  RH  082%=      5-min Rain = 0
KMES 170330Z 16001KT 03/M00 A3017 RMK A01 T00251004  RH  082%=      5-min Rain = 0
KMES 170335Z 19003KT 03/M00 A3018 RMK A01 T00251004  RH  082%=      5-min Rain = 0.01
KMES 170340Z 19004KT 03/M00 A3019 RMK A01 T00251004  RH  083%=      5-min Rain = 0
KMES 170345Z 19004KT 02/M00 A3018 RMK A01 T00241004  RH  083%=      5-min Rain = 0
KMES 170350Z 15003KT 02/M00 A3016 RMK A01 T00231004  RH  083%=      5-min Rain = 0.01
KMES 170355Z 14004KT 02/M00 A3016 RMK A01 T00231002  RH  084%=      5-min Rain = 0
KMES 170400Z 14004KT 02/M00 A3015 RMK A01 T00221001  RH  086%=      5-min Rain = 0.01
KMES 170405Z 13004KT 02/00 A3014 RMK A01 T00210000  RH  087%=      5-min Rain = 0
KMES 170410Z 14004KT 02/00 A3014 RMK A01 T00210001  RH  088%=      5-min Rain = 0.01
KMES 170415Z 16003KT 02/00 A3014 RMK A01 T00200001  RH  088%=      5-min Rain = 0
KMES 170420Z 16004KT 02/00 A3014 RMK A01 T00190000  RH  089%=      5-min Rain = 0.01
KMES 170425Z 14005KT 02/00 A3013 RMK A01 T00180001  RH  090%=      5-min Rain = 0
KMES 170430Z 14005KT 02/00 A3014 RMK A01 T00180002  RH  090%=      5-min Rain = 0.01
KMES 170435Z 14005KT 02/00 A3013 RMK A01 T00180003  RH  091%=      5-min Rain = 0
KMES 170440Z 13005KT 02/00 A3012 RMK A01 T00170003  RH  092%=      5-min Rain = 0.01
KMES 170445Z 14005KT 02/00 A3012 RMK A01 T00160003  RH  092%=      5-min Rain = 0
KMES 170450Z 15004KT 02/00 A3011 RMK A01 T00150003  RH  093%=      5-min Rain = 0
KMES 170455Z 13005KT 02/00 A3011 RMK A01 T00150003  RH  093%=      5-min Rain = 0.01
KMES 170500Z 13005KT 01/00 A301 RMK A01 T00140003  RH  094%=      5-min Rain = 0
KMES 170505Z 14004KT 01/00 A301 RMK A01 T00140004  RH  094%=      5-min Rain = 0
KMES 170510Z 16004KT 01/00 A301 RMK A01 T00130004  RH  094%=      5-min Rain = 0
KMES 170515Z 19005KT 01/00 A3012 RMK A01 T00120003  RH  095%=      5-min Rain = 0.01
KMES 170520Z 17005KT 01/00 A3012 RMK A01 T00110002  RH  095%=      5-min Rain = 0.03
KMES 170525Z 17004KT 01/00 A3012 RMK A01 T00120004  RH  095%=      5-min Rain = 0.01
KMES 170530Z 18004KT 01/00 A3012 RMK A01 T00120004  RH  096%=      5-min Rain = 0.01
KMES 170535Z 19005KT 01/00 A3012 RMK A01 T00120004  RH  096%=      5-min Rain = 0.01
KMES 170540Z 21005KT 01/01 A3012 RMK A01 T00130006  RH  096%=      5-min Rain = 0.02
KMES 170545Z 22006KT 01/01 A3013 RMK A01 T00140007  RH  097%=      5-min Rain = 0.02
KMES 170550Z 22007KT 02/01 A3013 RMK A01 T00150009  RH  097%=      5-min Rain = 0.01
KMES 170555Z 21006KT 02/01 A3012 RMK A01 T00160009  RH  097%=      5-min Rain = 0.01

Page generated in 0.0149 seconds.